createdAt,value
2018-07-11T00:01:11.657Z,97820.00
2018-07-11T00:03:57.618Z,97819.00
2018-07-11T04:59:47.901Z,97829.00
2018-07-11T05:02:28.887Z,97829.00
2018-07-11T05:05:09.106Z,97826.00
2018-07-11T05:07:57.963Z,97831.00
2018-07-11T05:10:42.424Z,97832.00
2018-07-11T05:13:25.078Z,97835.00
2018-07-11T05:16:12.119Z,97840.00
2018-07-11T05:18:52.463Z,97846.00
2018-07-11T05:21:31.420Z,97848.00
2018-07-11T05:24:11.178Z,97846.00
2018-07-11T05:26:51.478Z,97844.00
2018-07-11T05:29:40.818Z,97846.00
2018-07-11T05:32:24.798Z,97852.00
2018-07-11T05:35:09.661Z,97856.00
2018-07-11T05:37:52.324Z,97857.00
2018-07-11T05:40:35.821Z,97858.00
2018-07-11T05:43:17.418Z,97859.00
2018-07-11T05:45:58.320Z,97855.00
2018-07-11T05:48:46.097Z,97854.00
2018-07-11T05:51:27.506Z,97856.00
2018-07-11T05:54:13.843Z,97853.00
2018-07-11T05:56:56.340Z,97850.00
2018-07-11T05:59:39.365Z,97849.00
2018-07-11T06:02:27.522Z,97847.00
2018-07-11T06:05:13.762Z,97854.00
2018-07-11T06:07:53.178Z,97851.00
2018-07-11T06:10:35.802Z,97853.00
2018-07-11T06:13:20.920Z,97852.00
2018-07-11T06:16:09.677Z,97852.00
2018-07-11T06:18:50.025Z,97850.00
2018-07-11T06:21:41.438Z,97855.00
2018-07-11T06:24:27.759Z,97861.00
2018-07-11T06:27:11.622Z,97865.00
2018-07-11T06:29:59.538Z,97861.00
2018-07-11T06:32:38.601Z,97866.00
2018-07-11T06:35:24.044Z,97865.00
2018-07-11T06:38:07.274Z,97874.00
2018-07-11T06:40:49.081Z,97864.00
2018-07-11T06:43:37.244Z,97872.00
2018-07-11T06:46:24.354Z,97872.00
2018-07-11T06:49:10.102Z,97877.00
2018-07-11T06:51:54.885Z,97878.00
2018-07-11T06:54:38.320Z,97880.00
2018-07-11T06:57:23.977Z,97880.00
2018-07-11T07:00:13.362Z,97881.00
2018-07-11T07:02:57.178Z,97883.00
2018-07-11T07:05:40.741Z,97886.00
2018-07-11T07:08:23.942Z,97887.00
2018-07-11T07:11:04.243Z,97887.00
2018-07-11T07:13:48.339Z,97886.00
2018-07-11T07:16:32.134Z,97874.00
2018-07-11T07:19:23.228Z,97870.00
2018-07-11T07:22:02.473Z,97870.00
2018-07-11T07:24:48.119Z,97882.00
2018-07-11T07:27:28.617Z,97880.00
2018-07-11T07:30:12.340Z,97886.00
2018-07-11T07:32:56.478Z,97876.00
2018-07-11T07:35:38.323Z,97877.00
2018-07-11T07:38:20.021Z,97885.00
2018-07-11T07:41:00.602Z,97884.00
2018-07-11T07:43:50.774Z,97883.00
2018-07-11T07:46:31.785Z,97882.00
2018-07-11T07:49:19.804Z,97882.00
2018-07-11T07:52:07.422Z,97885.00
2018-07-11T07:54:50.101Z,97881.00
2018-07-11T07:57:29.706Z,97878.00
2018-07-11T08:00:11.900Z,97881.00
2018-07-11T08:02:53.100Z,97883.00
2018-07-11T08:05:35.800Z,97881.00
2018-07-11T08:08:18.761Z,97879.00
2018-07-11T08:11:04.521Z,97871.00
2018-07-11T08:52:54.843Z,97842.00
2018-07-11T08:56:23.264Z,97847.00
2018-07-11T08:59:53.859Z,97847.00
2018-07-11T09:07:59.627Z,97847.00
2018-07-11T09:10:54.414Z,97844.00
2018-07-11T09:14:26.780Z,97842.00
2018-07-11T09:18:26.277Z,97834.00
2018-07-11T09:23:40.756Z,97829.00
2018-07-11T09:26:23.278Z,97827.00
2018-07-11T09:29:02.440Z,97831.00
2018-07-11T09:31:44.781Z,97822.00
2018-07-11T09:34:35.559Z,97822.00
2018-07-11T09:37:21.707Z,97822.00
2018-07-11T09:40:02.541Z,97818.00
2018-07-11T09:42:43.009Z,97826.00
2018-07-11T09:45:21.827Z,97828.00
2018-07-11T09:48:05.480Z,97832.00
2018-07-11T09:50:52.058Z,97845.00
2018-07-11T09:53:36.079Z,97849.00
2018-07-11T09:56:22.660Z,97847.00
2018-07-11T09:59:05.833Z,97852.00
2018-07-11T10:01:58.525Z,97854.00
2018-07-11T10:04:39.902Z,97857.00
2018-07-11T10:07:24.241Z,97857.00
2018-07-11T10:10:05.763Z,97860.00
2018-07-11T10:12:50.818Z,97857.00
2018-07-11T10:15:31.068Z,97855.00
2018-07-11T10:18:16.583Z,97858.00
2018-07-11T17:13:26.891Z,97857.00
2018-07-11T17:16:05.034Z,97858.00
2018-07-11T22:32:36.440Z,97993.00
2018-07-11T22:35:09.461Z,97994.00
2018-07-11T22:37:43.525Z,97995.00
2018-07-11T22:40:16.266Z,98000.00
2018-07-11T22:42:48.941Z,97992.00
2018-07-11T22:45:23.081Z,97983.00
2018-07-11T22:47:56.869Z,97986.00
2018-07-11T22:50:33.378Z,97986.00
2018-07-11T22:53:06.740Z,97978.00
2018-07-11T22:55:40.205Z,97978.00
